sensor_id;sensor_type;location;lat;lon;timestamp;P1;durP1;ratioP1;P2;durP2;ratioP2
12124;SDS011;6126;57.908;16.490;2022-10-16T00:01:21;6.32;;;4.15;;
12124;SDS011;6126;57.908;16.490;2022-10-16T00:03:55;4.47;;;3.50;;
12124;SDS011;6126;57.908;16.490;2022-10-16T00:06:23;3.13;;;2.83;;
12124;SDS011;6126;57.908;16.490;2022-10-16T00:08:50;5.57;;;3.60;;
12124;SDS011;6126;57.908;16.490;2022-10-16T00:11:21;3.38;;;3.08;;
12124;SDS011;6126;57.908;16.490;2022-10-16T00:13:51;5.53;;;3.25;;
12124;SDS011;6126;57.908;16.490;2022-10-16T00:16:22;4.80;;;3.47;;
12124;SDS011;6126;57.908;16.490;2022-10-16T00:18:48;6.25;;;2.95;;
12124;SDS011;6126;57.908;16.490;2022-10-16T00:21:15;3.20;;;2.90;;
12124;SDS011;6126;57.908;16.490;2022-10-16T00:23:45;3.58;;;3.05;;
12124;SDS011;6126;57.908;16.490;2022-10-16T00:26:13;3.28;;;2.97;;
12124;SDS011;6126;57.908;16.490;2022-10-16T00:28:42;3.75;;;3.08;;
12124;SDS011;6126;57.908;16.490;2022-10-16T00:31:11;3.13;;;2.85;;
12124;SDS011;6126;57.908;16.490;2022-10-16T00:33:38;3.30;;;3.00;;
12124;SDS011;6126;57.908;16.490;2022-10-16T00:36:05;3.58;;;3.25;;
12124;SDS011;6126;57.908;16.490;2022-10-16T00:38:35;3.80;;;3.22;;
12124;SDS011;6126;57.908;16.490;2022-10-16T00:41:02;5.30;;;3.05;;
12124;SDS011;6126;57.908;16.490;2022-10-16T00:43:40;3.40;;;2.40;;
12124;SDS011;6126;57.908;16.490;2022-10-16T00:51:45;2.88;;;2.40;;
12124;SDS011;6126;57.908;16.490;2022-10-16T00:54:22;4.05;;;2.00;;
12124;SDS011;6126;57.908;16.490;2022-10-16T00:56:52;5.50;;;2.83;;
12124;SDS011;6126;57.908;16.490;2022-10-16T00:59:25;3.30;;;2.42;;
12124;SDS011;6126;57.908;16.490;2022-10-16T01:02:01;2.10;;;2.00;;
12124;SDS011;6126;57.908;16.490;2022-10-16T01:04:32;2.35;;;2.15;;
12124;SDS011;6126;57.908;16.490;2022-10-16T01:07:10;3.00;;;2.13;;
12124;SDS011;6126;57.908;16.490;2022-10-16T01:10:28;2.83;;;2.13;;
12124;SDS011;6126;57.908;16.490;2022-10-16T01:16:05;2.55;;;2.35;;
12124;SDS011;6126;57.908;16.490;2022-10-16T01:18:47;2.25;;;2.05;;
12124;SDS011;6126;57.908;16.490;2022-10-16T01:21:23;3.75;;;2.10;;
12124;SDS011;6126;57.908;16.490;2022-10-16T01:24:37;2.70;;;2.15;;
12124;SDS011;6126;57.908;16.490;2022-10-16T01:29:51;2.83;;;2.13;;
12124;SDS011;6126;57.908;16.490;2022-10-16T01:35:27;2.25;;;1.90;;
12124;SDS011;6126;57.908;16.490;2022-10-16T01:41:04;2.97;;;2.40;;
12124;SDS011;6126;57.908;16.490;2022-10-16T01:43:47;3.60;;;2.47;;
12124;SDS011;6126;57.908;16.490;2022-10-16T01:46:21;3.10;;;2.60;;
12124;SDS011;6126;57.908;16.490;2022-10-16T01:48:48;6.38;;;2.95;;
12124;SDS011;6126;57.908;16.490;2022-10-16T01:51:16;3.13;;;2.75;;
12124;SDS011;6126;57.908;16.490;2022-10-16T01:53:46;2.65;;;2.40;;
12124;SDS011;6126;57.908;16.490;2022-10-16T01:56:18;2.60;;;2.25;;
12124;SDS011;6126;57.908;16.490;2022-10-16T01:58:53;2.30;;;2.10;;
12124;SDS011;6126;57.908;16.490;2022-10-16T02:01:24;5.38;;;2.42;;
12124;SDS011;6126;57.908;16.490;2022-10-16T02:03:55;3.17;;;2.13;;
12124;SDS011;6126;57.908;16.490;2022-10-16T02:06:26;2.40;;;2.20;;
12124;SDS011;6126;57.908;16.490;2022-10-16T02:08:54;2.67;;;2.45;;
12124;SDS011;6126;57.908;16.490;2022-10-16T02:11:20;3.63;;;2.58;;
12124;SDS011;6126;57.908;16.490;2022-10-16T02:13:55;2.47;;;2.15;;
12124;SDS011;6126;57.908;16.490;2022-10-16T02:16:40;4.35;;;2.25;;
12124;SDS011;6126;57.908;16.490;2022-10-16T02:19:09;2.38;;;2.08;;
12124;SDS011;6126;57.908;16.490;2022-10-16T02:31:04;2.17;;;1.98;;
12124;SDS011;6126;57.908;16.490;2022-10-16T02:33:00;4.53;;;2.42;;
12124;SDS011;6126;57.908;16.490;2022-10-16T02:35:32;3.47;;;2.67;;
12124;SDS011;6126;57.908;16.490;2022-10-16T02:37:59;4.22;;;2.78;;
12124;SDS011;6126;57.908;16.490;2022-10-16T02:40:27;4.70;;;2.90;;
12124;SDS011;6126;57.908;16.490;2022-10-16T02:42:54;2.97;;;2.67;;
12124;SDS011;6126;57.908;16.490;2022-10-16T02:45:21;4.00;;;3.00;;
12124;SDS011;6126;57.908;16.490;2022-10-16T02:47:48;3.13;;;2.75;;
12124;SDS011;6126;57.908;16.490;2022-10-16T02:50:14;3.65;;;2.90;;
12124;SDS011;6126;57.908;16.490;2022-10-16T02:52:40;3.58;;;3.28;;
12124;SDS011;6126;57.908;16.490;2022-10-16T02:55:07;5.07;;;3.40;;
12124;SDS011;6126;57.908;16.490;2022-10-16T02:57:33;5.53;;;3.40;;
12124;SDS011;6126;57.908;16.490;2022-10-16T03:00:02;6.70;;;4.50;;
12124;SDS011;6126;57.908;16.490;2022-10-16T03:02:30;3.50;;;3.20;;
12124;SDS011;6126;57.908;16.490;2022-10-16T03:04:55;4.15;;;3.75;;
12124;SDS011;6126;57.908;16.490;2022-10-16T03:07:21;4.60;;;3.58;;
12124;SDS011;6126;57.908;16.490;2022-10-16T03:09:47;4.43;;;3.72;;
12124;SDS011;6126;57.908;16.490;2022-10-16T03:12:13;7.93;;;4.35;;
12124;SDS011;6126;57.908;16.490;2022-10-16T03:14:39;6.18;;;4.72;;
12124;SDS011;6126;57.908;16.490;2022-10-16T03:17:05;4.70;;;4.05;;
12124;SDS011;6126;57.908;16.490;2022-10-16T03:19:31;4.63;;;4.15;;
12124;SDS011;6126;57.908;16.490;2022-10-16T03:21:57;5.75;;;4.80;;
12124;SDS011;6126;57.908;16.490;2022-10-16T03:24:23;5.13;;;4.60;;
12124;SDS011;6126;57.908;16.490;2022-10-16T03:26:48;6.50;;;4.45;;
12124;SDS011;6126;57.908;16.490;2022-10-16T03:29:14;10.07;;;4.72;;
12124;SDS011;6126;57.908;16.490;2022-10-16T03:31:40;7.78;;;4.82;;
12124;SDS011;6126;57.908;16.490;2022-10-16T03:34:06;8.70;;;4.88;;
12124;SDS011;6126;57.908;16.490;2022-10-16T03:36:32;7.18;;;4.82;;
12124;SDS011;6126;57.908;16.490;2022-10-16T03:38:58;5.45;;;4.30;;
12124;SDS011;6126;57.908;16.490;2022-10-16T03:41:24;6.40;;;4.75;;
12124;SDS011;6126;57.908;16.490;2022-10-16T03:43:49;6.82;;;4.85;;
12124;SDS011;6126;57.908;16.490;2022-10-16T03:46:15;7.18;;;5.10;;
12124;SDS011;6126;57.908;16.490;2022-10-16T03:48:41;7.07;;;4.85;;
12124;SDS011;6126;57.908;16.490;2022-10-16T03:51:07;8.18;;;5.10;;
12124;SDS011;6126;57.908;16.490;2022-10-16T03:53:33;7.03;;;5.13;;
12124;SDS011;6126;57.908;16.490;2022-10-16T03:55:58;7.40;;;4.95;;
12124;SDS011;6126;57.908;16.490;2022-10-16T03:58:25;6.95;;;5.22;;
12124;SDS011;6126;57.908;16.490;2022-10-16T04:00:51;9.65;;;6.38;;
12124;SDS011;6126;57.908;16.490;2022-10-16T04:03:17;8.38;;;5.30;;
12124;SDS011;6126;57.908;16.490;2022-10-16T04:05:44;7.03;;;5.22;;
12124;SDS011;6126;57.908;16.490;2022-10-16T04:08:10;7.38;;;5.65;;
12124;SDS011;6126;57.908;16.490;2022-10-16T04:10:35;7.45;;;5.75;;
12124;SDS011;6126;57.908;16.490;2022-10-16T04:13:01;8.30;;;5.40;;
12124;SDS011;6126;57.908;16.490;2022-10-16T04:15:27;6.65;;;5.45;;
12124;SDS011;6126;57.908;16.490;2022-10-16T04:17:53;8.02;;;5.90;;
12124;SDS011;6126;57.908;16.490;2022-10-16T04:20:19;8.52;;;5.45;;
12124;SDS011;6126;57.908;16.490;2022-10-16T04:22:45;7.93;;;5.80;;
12124;SDS011;6126;57.908;16.490;2022-10-16T04:25:11;9.30;;;5.50;;
12124;SDS011;6126;57.908;16.490;2022-10-16T04:27:38;8.07;;;5.90;;
12124;SDS011;6126;57.908;16.490;2022-10-16T04:30:04;8.75;;;5.95;;
12124;SDS011;6126;57.908;16.490;2022-10-16T04:32:30;8.05;;;5.95;;
12124;SDS011;6126;57.908;16.490;2022-10-16T04:34:56;8.10;;;6.18;;
12124;SDS011;6126;57.908;16.490;2022-10-16T04:37:25;8.30;;;5.82;;
12124;SDS011;6126;57.908;16.490;2022-10-16T04:39:52;7.03;;;5.93;;
12124;SDS011;6126;57.908;16.490;2022-10-16T04:42:19;13.73;;;6.88;;
12124;SDS011;6126;57.908;16.490;2022-10-16T04:44:46;8.60;;;6.40;;
12124;SDS011;6126;57.908;16.490;2022-10-16T04:47:12;9.20;;;6.50;;
12124;SDS011;6126;57.908;16.490;2022-10-16T04:49:38;12.00;;;6.43;;
12124;SDS011;6126;57.908;16.490;2022-10-16T04:52:04;10.25;;;6.57;;
12124;SDS011;6126;57.908;16.490;2022-10-16T04:54:30;8.45;;;6.28;;
12124;SDS011;6126;57.908;16.490;2022-10-16T04:56:56;8.90;;;6.47;;
12124;SDS011;6126;57.908;16.490;2022-10-16T04:59:22;9.35;;;6.22;;
12124;SDS011;6126;57.908;16.490;2022-10-16T05:01:48;8.32;;;6.07;;
12124;SDS011;6126;57.908;16.490;2022-10-16T05:04:15;8.88;;;5.88;;
12124;SDS011;6126;57.908;16.490;2022-10-16T05:06:41;6.43;;;5.30;;
12124;SDS011;6126;57.908;16.490;2022-10-16T05:09:07;6.68;;;5.82;;
12124;SDS011;6126;57.908;16.490;2022-10-16T05:11:34;8.25;;;5.72;;
12124;SDS011;6126;57.908;16.490;2022-10-16T05:14:00;8.52;;;5.63;;
12124;SDS011;6126;57.908;16.490;2022-10-16T05:16:27;8.32;;;5.72;;
12124;SDS011;6126;57.908;16.490;2022-10-16T05:18:53;6.80;;;6.07;;
12124;SDS011;6126;57.908;16.490;2022-10-16T05:21:20;7.75;;;5.30;;
12124;SDS011;6126;57.908;16.490;2022-10-16T05:23:46;7.25;;;4.65;;
12124;SDS011;6126;57.908;16.490;2022-10-16T05:26:11;6.05;;;5.45;;
12124;SDS011;6126;57.908;16.490;2022-10-16T05:28:37;10.10;;;5.43;;
12124;SDS011;6126;57.908;16.490;2022-10-16T05:31:04;8.32;;;5.28;;
12124;SDS011;6126;57.908;16.490;2022-10-16T05:33:34;6.05;;;5.05;;
12124;SDS011;6126;57.908;16.490;2022-10-16T05:36:01;5.13;;;4.53;;
12124;SDS011;6126;57.908;16.490;2022-10-16T05:38:32;7.30;;;5.20;;
12124;SDS011;6126;57.908;16.490;2022-10-16T05:41:00;8.23;;;4.93;;
12124;SDS011;6126;57.908;16.490;2022-10-16T05:43:27;4.28;;;3.70;;
12124;SDS011;6126;57.908;16.490;2022-10-16T05:46:03;4.55;;;4.15;;
12124;SDS011;6126;57.908;16.490;2022-10-16T05:48:31;6.28;;;4.60;;
12124;SDS011;6126;57.908;16.490;2022-10-16T05:51:01;4.55;;;3.90;;
12124;SDS011;6126;57.908;16.490;2022-10-16T05:53:30;5.43;;;4.38;;
12124;SDS011;6126;57.908;16.490;2022-10-16T05:55:59;6.40;;;4.10;;
12124;SDS011;6126;57.908;16.490;2022-10-16T05:58:28;4.28;;;3.47;;
12124;SDS011;6126;57.908;16.490;2022-10-16T06:01:04;5.10;;;4.10;;
12124;SDS011;6126;57.908;16.490;2022-10-16T06:03:35;3.90;;;3.50;;
12124;SDS011;6126;57.908;16.490;2022-10-16T06:06:11;4.35;;;3.45;;
12124;SDS011;6126;57.908;16.490;2022-10-16T06:08:44;3.28;;;2.92;;
12124;SDS011;6126;57.908;16.490;2022-10-16T06:11:13;4.68;;;3.25;;
12124;SDS011;6126;57.908;16.490;2022-10-16T06:13:41;3.15;;;2.85;;
12124;SDS011;6126;57.908;16.490;2022-10-16T06:16:08;3.42;;;3.13;;
12124;SDS011;6126;57.908;16.490;2022-10-16T06:18:35;3.97;;;3.05;;
12124;SDS011;6126;57.908;16.490;2022-10-16T06:21:06;5.22;;;3.08;;
12124;SDS011;6126;57.908;16.490;2022-10-16T06:23:35;3.85;;;3.35;;
12124;SDS011;6126;57.908;16.490;2022-10-16T06:26:08;4.18;;;3.40;;
12124;SDS011;6126;57.908;16.490;2022-10-16T06:28:37;3.78;;;3.30;;
12124;SDS011;6126;57.908;16.490;2022-10-16T06:31:04;3.90;;;3.15;;
12124;SDS011;6126;57.908;16.490;2022-10-16T06:33:32;4.57;;;2.88;;
12124;SDS011;6126;57.908;16.490;2022-10-16T06:36:08;3.90;;;2.75;;
12124;SDS011;6126;57.908;16.490;2022-10-16T06:38:37;3.20;;;2.60;;
12124;SDS011;6126;57.908;16.490;2022-10-16T06:41:04;2.60;;;2.38;;
12124;SDS011;6126;57.908;16.490;2022-10-16T06:43:31;2.45;;;2.25;;
12124;SDS011;6126;57.908;16.490;2022-10-16T06:46:00;2.90;;;2.42;;
12124;SDS011;6126;57.908;16.490;2022-10-16T06:48:28;2.88;;;2.58;;
12124;SDS011;6126;57.908;16.490;2022-10-16T06:50:58;3.13;;;2.53;;
12124;SDS011;6126;57.908;16.490;2022-10-16T06:53:28;2.10;;;1.90;;
12124;SDS011;6126;57.908;16.490;2022-10-16T06:55:57;3.63;;;2.10;;
12124;SDS011;6126;57.908;16.490;2022-10-16T06:58:31;4.53;;;2.40;;
12124;SDS011;6126;57.908;16.490;2022-10-16T07:00:57;2.30;;;2.10;;
12124;SDS011;6126;57.908;16.490;2022-10-16T07:03:22;2.72;;;2.53;;
12124;SDS011;6126;57.908;16.490;2022-10-16T07:05:48;2.78;;;2.10;;
12124;SDS011;6126;57.908;16.490;2022-10-16T07:08:14;2.80;;;2.33;;
12124;SDS011;6126;57.908;16.490;2022-10-16T07:10:40;2.22;;;2.05;;
12124;SDS011;6126;57.908;16.490;2022-10-16T07:13:06;3.72;;;2.17;;
12124;SDS011;6126;57.908;16.490;2022-10-16T07:15:38;2.10;;;1.90;;
12124;SDS011;6126;57.908;16.490;2022-10-16T07:18:04;2.45;;;1.90;;
12124;SDS011;6126;57.908;16.490;2022-10-16T07:20:30;2.17;;;1.88;;
12124;SDS011;6126;57.908;16.490;2022-10-16T07:22:56;2.45;;;2.25;;
12124;SDS011;6126;57.908;16.490;2022-10-16T07:25:21;2.38;;;2.15;;
12124;SDS011;6126;57.908;16.490;2022-10-16T07:27:47;2.42;;;2.10;;
12124;SDS011;6126;57.908;16.490;2022-10-16T07:30:13;2.15;;;1.90;;
12124;SDS011;6126;57.908;16.490;2022-10-16T07:32:39;2.38;;;2.17;;
12124;SDS011;6126;57.908;16.490;2022-10-16T07:35:05;2.30;;;1.92;;
12124;SDS011;6126;57.908;16.490;2022-10-16T07:37:32;2.47;;;1.50;;
12124;SDS011;6126;57.908;16.490;2022-10-16T07:39:58;4.00;;;1.80;;
12124;SDS011;6126;57.908;16.490;2022-10-16T07:42:23;3.25;;;1.95;;
12124;SDS011;6126;57.908;16.490;2022-10-16T07:44:49;4.47;;;1.70;;
12124;SDS011;6126;57.908;16.490;2022-10-16T07:47:15;1.67;;;1.58;;
12124;SDS011;6126;57.908;16.490;2022-10-16T07:49:41;2.00;;;1.33;;
12124;SDS011;6126;57.908;16.490;2022-10-16T07:52:07;2.88;;;1.83;;
12124;SDS011;6126;57.908;16.490;2022-10-16T07:54:32;4.75;;;3.72;;
12124;SDS011;6126;57.908;16.490;2022-10-16T07:56:58;1.42;;;1.27;;
12124;SDS011;6126;57.908;16.490;2022-10-16T07:59:24;2.45;;;1.80;;
12124;SDS011;6126;57.908;16.490;2022-10-16T08:01:50;2.05;;;1.73;;
12124;SDS011;6126;57.908;16.490;2022-10-16T08:04:16;2.05;;;1.75;;
12124;SDS011;6126;57.908;16.490;2022-10-16T08:06:41;2.33;;;2.00;;
12124;SDS011;6126;57.908;16.490;2022-10-16T08:09:08;3.67;;;1.98;;
12124;SDS011;6126;57.908;16.490;2022-10-16T08:11:34;1.98;;;1.80;;
12124;SDS011;6126;57.908;16.490;2022-10-16T08:14:00;3.33;;;1.95;;
12124;SDS011;6126;57.908;16.490;2022-10-16T08:16:26;2.65;;;1.85;;
12124;SDS011;6126;57.908;16.490;2022-10-16T08:18:52;3.05;;;2.25;;
12124;SDS011;6126;57.908;16.490;2022-10-16T08:21:19;3.13;;;2.25;;
12124;SDS011;6126;57.908;16.490;2022-10-16T08:23:48;2.63;;;1.98;;
12124;SDS011;6126;57.908;16.490;2022-10-16T08:26:15;2.35;;;2.13;;
12124;SDS011;6126;57.908;16.490;2022-10-16T08:28:41;2.35;;;1.90;;
12124;SDS011;6126;57.908;16.490;2022-10-16T08:31:08;1.67;;;1.58;;
12124;SDS011;6126;57.908;16.490;2022-10-16T08:33:40;2.50;;;1.70;;
12124;SDS011;6126;57.908;16.490;2022-10-16T08:36:10;2.30;;;1.80;;
12124;SDS011;6126;57.908;16.490;2022-10-16T08:38:37;3.70;;;1.60;;
12124;SDS011;6126;57.908;16.490;2022-10-16T08:49:33;4.93;;;1.70;;
12124;SDS011;6126;57.908;16.490;2022-10-16T08:52:00;2.35;;;1.63;;
12124;SDS011;6126;57.908;16.490;2022-10-16T08:54:31;4.30;;;1.65;;
12124;SDS011;6126;57.908;16.490;2022-10-16T08:57:14;2.70;;;1.73;;
12124;SDS011;6126;57.908;16.490;2022-10-16T08:59:45;3.97;;;1.67;;
12124;SDS011;6126;57.908;16.490;2022-10-16T09:02:24;1.48;;;1.38;;
12124;SDS011;6126;57.908;16.490;2022-10-16T09:14:23;5.00;;;1.55;;
12124;SDS011;6126;57.908;16.490;2022-10-16T09:17:30;1.58;;;1.45;;
12124;SDS011;6126;57.908;16.490;2022-10-16T09:20:42;4.10;;;1.52;;
12124;SDS011;6126;57.908;16.490;2022-10-16T09:23:40;3.25;;;1.52;;
12124;SDS011;6126;57.908;16.490;2022-10-16T09:26:09;5.95;;;1.60;;
12124;SDS011;6126;57.908;16.490;2022-10-16T09:28:39;2.53;;;1.60;;
12124;SDS011;6126;57.908;16.490;2022-10-16T09:31:05;1.70;;;1.60;;
12124;SDS011;6126;57.908;16.490;2022-10-16T09:33:40;2.22;;;1.48;;
12124;SDS011;6126;57.908;16.490;2022-10-16T09:36:08;1.42;;;1.33;;
12124;SDS011;6126;57.908;16.490;2022-10-16T09:38:37;3.20;;;1.70;;
12124;SDS011;6126;57.908;16.490;2022-10-16T09:41:09;3.35;;;1.67;;
12124;SDS011;6126;57.908;16.490;2022-10-16T09:43:57;2.95;;;1.40;;
12124;SDS011;6126;57.908;16.490;2022-10-16T09:48:57;1.50;;;1.40;;
12124;SDS011;6126;57.908;16.490;2022-10-16T09:56:41;2.95;;;1.50;;
12124;SDS011;6126;57.908;16.490;2022-10-16T09:59:14;2.85;;;1.45;;
12124;SDS011;6126;57.908;16.490;2022-10-16T10:01:44;1.75;;;1.40;;
12124;SDS011;6126;57.908;16.490;2022-10-16T10:04:40;5.15;;;1.60;;
12124;SDS011;6126;57.908;16.490;2022-10-16T10:07:18;2.67;;;1.08;;
12124;SDS011;6126;57.908;16.490;2022-10-16T10:10:20;1.60;;;1.08;;
12124;SDS011;6126;57.908;16.490;2022-10-16T10:12:49;4.00;;;1.52;;
12124;SDS011;6126;57.908;16.490;2022-10-16T10:15:15;2.05;;;1.00;;
12124;SDS011;6126;57.908;16.490;2022-10-16T10:17:48;1.42;;;1.27;;
12124;SDS011;6126;57.908;16.490;2022-10-16T10:22:54;1.33;;;1.10;;
12124;SDS011;6126;57.908;16.490;2022-10-16T10:25:43;3.13;;;1.30;;
12124;SDS011;6126;57.908;16.490;2022-10-16T10:46:02;3.17;;;0.90;;
12124;SDS011;6126;57.908;16.490;2022-10-16T10:57:18;1.52;;;1.35;;
12124;SDS011;6126;57.908;16.490;2022-10-16T11:00:09;2.15;;;1.17;;
12124;SDS011;6126;57.908;16.490;2022-10-16T11:03:04;1.45;;;0.95;;
12124;SDS011;6126;57.908;16.490;2022-10-16T11:05:41;2.58;;;1.30;;
12124;SDS011;6126;57.908;16.490;2022-10-16T11:11:20;0.82;;;0.80;;
12124;SDS011;6126;57.908;16.490;2022-10-16T11:13:58;4.43;;;1.42;;
12124;SDS011;6126;57.908;16.490;2022-10-16T11:16:29;1.85;;;0.85;;
12124;SDS011;6126;57.908;16.490;2022-10-16T11:22:13;2.30;;;0.80;;
12124;SDS011;6126;57.908;16.490;2022-10-16T11:27:50;3.30;;;1.20;;
12124;SDS011;6126;57.908;16.490;2022-10-16T11:30:21;1.65;;;1.10;;
12124;SDS011;6126;57.908;16.490;2022-10-16T11:38:53;1.33;;;0.88;;
12124;SDS011;6126;57.908;16.490;2022-10-16T11:41:32;2.80;;;0.95;;
12124;SDS011;6126;57.908;16.490;2022-10-16T11:44:33;3.28;;;1.05;;
12124;SDS011;6126;57.908;16.490;2022-10-16T11:50:36;0.98;;;0.80;;
12124;SDS011;6126;57.908;16.490;2022-10-16T11:56:03;3.15;;;1.00;;
12124;SDS011;6126;57.908;16.490;2022-10-16T11:58:31;2.60;;;1.08;;
12124;SDS011;6126;57.908;16.490;2022-10-16T12:01:17;2.15;;;1.27;;
12124;SDS011;6126;57.908;16.490;2022-10-16T12:04:11;4.90;;;1.05;;
12124;SDS011;6126;57.908;16.490;2022-10-16T12:07:11;4.18;;;1.10;;
12124;SDS011;6126;57.908;16.490;2022-10-16T12:09:57;3.25;;;1.10;;
12124;SDS011;6126;57.908;16.490;2022-10-16T12:17:51;2.35;;;1.00;;
12124;SDS011;6126;57.908;16.490;2022-10-16T12:22:56;3.45;;;1.40;;
12124;SDS011;6126;57.908;16.490;2022-10-16T12:25:30;1.15;;;0.98;;
12124;SDS011;6126;57.908;16.490;2022-10-16T12:28:20;2.60;;;0.90;;
12124;SDS011;6126;57.908;16.490;2022-10-16T12:30:55;4.47;;;0.85;;
12124;SDS011;6126;57.908;16.490;2022-10-16T12:33:30;5.10;;;1.00;;
12124;SDS011;6126;57.908;16.490;2022-10-16T12:36:02;1.95;;;0.95;;
12124;SDS011;6126;57.908;16.490;2022-10-16T12:38:48;3.33;;;1.30;;
12124;SDS011;6126;57.908;16.490;2022-10-16T12:41:30;2.13;;;0.93;;
12124;SDS011;6126;57.908;16.490;2022-10-16T12:43:59;2.10;;;1.10;;
12124;SDS011;6126;57.908;16.490;2022-10-16T12:51:39;8.10;;;1.10;;
12124;SDS011;6126;57.908;16.490;2022-10-16T12:54:14;2.97;;;1.10;;
12124;SDS011;6126;57.908;16.490;2022-10-16T13:11:58;4.20;;;1.42;;
12124;SDS011;6126;57.908;16.490;2022-10-16T13:20:31;3.40;;;0.85;;
12124;SDS011;6126;57.908;16.490;2022-10-16T13:23:20;3.22;;;1.05;;
12124;SDS011;6126;57.908;16.490;2022-10-16T13:29:14;1.88;;;0.95;;
12124;SDS011;6126;57.908;16.490;2022-10-16T13:31:41;1.75;;;1.13;;
12124;SDS011;6126;57.908;16.490;2022-10-16T13:34:12;3.30;;;1.02;;
12124;SDS011;6126;57.908;16.490;2022-10-16T13:36:48;4.00;;;0.90;;
12124;SDS011;6126;57.908;16.490;2022-10-16T13:39:22;5.28;;;1.20;;
12124;SDS011;6126;57.908;16.490;2022-10-16T13:44:50;1.23;;;0.73;;
12124;SDS011;6126;57.908;16.490;2022-10-16T13:47:18;4.72;;;0.88;;
12124;SDS011;6126;57.908;16.490;2022-10-16T13:50:00;3.13;;;1.13;;
12124;SDS011;6126;57.908;16.490;2022-10-16T13:52:34;4.90;;;1.13;;
12124;SDS011;6126;57.908;16.490;2022-10-16T13:55:00;2.83;;;1.10;;
12124;SDS011;6126;57.908;16.490;2022-10-16T13:57:26;1.33;;;0.90;;
12124;SDS011;6126;57.908;16.490;2022-10-16T13:59:52;3.08;;;1.33;;
12124;SDS011;6126;57.908;16.490;2022-10-16T14:02:31;3.53;;;1.25;;
12124;SDS011;6126;57.908;16.490;2022-10-16T14:05:02;2.90;;;1.05;;
12124;SDS011;6126;57.908;16.490;2022-10-16T14:07:33;2.30;;;1.00;;
12124;SDS011;6126;57.908;16.490;2022-10-16T14:10:04;1.95;;;1.27;;
12124;SDS011;6126;57.908;16.490;2022-10-16T14:12:43;1.40;;;0.90;;
12124;SDS011;6126;57.908;16.490;2022-10-16T14:15:15;3.83;;;1.10;;
12124;SDS011;6126;57.908;16.490;2022-10-16T14:17:44;1.45;;;0.77;;
12124;SDS011;6126;57.908;16.490;2022-10-16T14:20:15;7.15;;;1.15;;
12124;SDS011;6126;57.908;16.490;2022-10-16T14:22:58;3.60;;;1.05;;
12124;SDS011;6126;57.908;16.490;2022-10-16T14:25:43;1.48;;;0.73;;
12124;SDS011;6126;57.908;16.490;2022-10-16T14:30:48;4.05;;;0.93;;
12124;SDS011;6126;57.908;16.490;2022-10-16T14:33:20;3.53;;;1.10;;
12124;SDS011;6126;57.908;16.490;2022-10-16T14:35:59;2.58;;;0.80;;
12124;SDS011;6126;57.908;16.490;2022-10-16T14:38:30;6.03;;;0.93;;
12124;SDS011;6126;57.908;16.490;2022-10-16T14:40:59;2.75;;;0.88;;
12124;SDS011;6126;57.908;16.490;2022-10-16T14:43:31;1.45;;;0.93;;
12124;SDS011;6126;57.908;16.490;2022-10-16T14:46:02;3.28;;;1.08;;
12124;SDS011;6126;57.908;16.490;2022-10-16T14:48:34;2.05;;;0.80;;
12124;SDS011;6126;57.908;16.490;2022-10-16T14:51:00;3.28;;;0.90;;
12124;SDS011;6126;57.908;16.490;2022-10-16T14:53:26;3.08;;;0.80;;
12124;SDS011;6126;57.908;16.490;2022-10-16T14:55:51;2.40;;;1.00;;
12124;SDS011;6126;57.908;16.490;2022-10-16T14:58:19;1.98;;;0.90;;
12124;SDS011;6126;57.908;16.490;2022-10-16T15:00:47;8.82;;;1.85;;
12124;SDS011;6126;57.908;16.490;2022-10-16T15:03:14;5.00;;;0.93;;
12124;SDS011;6126;57.908;16.490;2022-10-16T15:05:40;4.18;;;1.00;;
12124;SDS011;6126;57.908;16.490;2022-10-16T15:08:06;2.05;;;0.90;;
12124;SDS011;6126;57.908;16.490;2022-10-16T15:10:33;2.10;;;0.57;;
12124;SDS011;6126;57.908;16.490;2022-10-16T15:13:06;2.53;;;0.70;;
12124;SDS011;6126;57.908;16.490;2022-10-16T15:15:38;2.63;;;0.98;;
12124;SDS011;6126;57.908;16.490;2022-10-16T15:18:10;4.63;;;1.02;;
12124;SDS011;6126;57.908;16.490;2022-10-16T15:20:39;1.58;;;0.65;;
12124;SDS011;6126;57.908;16.490;2022-10-16T15:23:06;2.50;;;0.43;;
12124;SDS011;6126;57.908;16.490;2022-10-16T15:25:47;1.63;;;0.60;;
12124;SDS011;6126;57.908;16.490;2022-10-16T15:28:19;2.05;;;0.55;;
12124;SDS011;6126;57.908;16.490;2022-10-16T15:30:49;1.25;;;0.60;;
12124;SDS011;6126;57.908;16.490;2022-10-16T15:33:21;1.25;;;0.50;;
12124;SDS011;6126;57.908;16.490;2022-10-16T15:35:54;1.08;;;0.43;;
12124;SDS011;6126;57.908;16.490;2022-10-16T15:38:21;0.55;;;0.30;;
12124;SDS011;6126;57.908;16.490;2022-10-16T15:40:47;0.45;;;0.38;;
12124;SDS011;6126;57.908;16.490;2022-10-16T15:43:14;0.30;;;0.30;;
12124;SDS011;6126;57.908;16.490;2022-10-16T15:45:41;0.80;;;0.30;;
12124;SDS011;6126;57.908;16.490;2022-10-16T15:48:10;1.88;;;0.82;;
12124;SDS011;6126;57.908;16.490;2022-10-16T15:50:38;0.45;;;0.40;;
12124;SDS011;6126;57.908;16.490;2022-10-16T15:53:05;1.00;;;0.30;;
12124;SDS011;6126;57.908;16.490;2022-10-16T15:55:30;1.88;;;0.38;;
12124;SDS011;6126;57.908;16.490;2022-10-16T15:57:56;1.70;;;0.73;;
12124;SDS011;6126;57.908;16.490;2022-10-16T16:00:22;4.57;;;0.52;;
12124;SDS011;6126;57.908;16.490;2022-10-16T16:02:53;3.00;;;0.55;;
12124;SDS011;6126;57.908;16.490;2022-10-16T16:05:20;1.23;;;0.30;;
12124;SDS011;6126;57.908;16.490;2022-10-16T16:07:48;1.83;;;0.50;;
12124;SDS011;6126;57.908;16.490;2022-10-16T16:10:15;0.35;;;0.30;;
12124;SDS011;6126;57.908;16.490;2022-10-16T16:12:41;1.67;;;0.40;;
12124;SDS011;6126;57.908;16.490;2022-10-16T16:15:08;0.65;;;0.50;;
12124;SDS011;6126;57.908;16.490;2022-10-16T16:17:35;0.73;;;0.52;;
12124;SDS011;6126;57.908;16.490;2022-10-16T16:20:01;1.55;;;0.50;;
12124;SDS011;6126;57.908;16.490;2022-10-16T16:22:29;0.30;;;0.30;;
12124;SDS011;6126;57.908;16.490;2022-10-16T16:24:55;0.63;;;0.30;;
12124;SDS011;6126;57.908;16.490;2022-10-16T16:27:21;1.58;;;0.50;;
12124;SDS011;6126;57.908;16.490;2022-10-16T16:29:49;5.72;;;0.50;;
12124;SDS011;6126;57.908;16.490;2022-10-16T16:32:15;1.77;;;0.50;;
12124;SDS011;6126;57.908;16.490;2022-10-16T16:34:41;2.05;;;0.28;;
12124;SDS011;6126;57.908;16.490;2022-10-16T16:37:07;1.00;;;0.50;;
12124;SDS011;6126;57.908;16.490;2022-10-16T16:39:33;1.15;;;0.45;;
12124;SDS011;6126;57.908;16.490;2022-10-16T16:41:59;0.40;;;0.32;;
12124;SDS011;6126;57.908;16.490;2022-10-16T16:44:25;4.00;;;0.40;;
12124;SDS011;6126;57.908;16.490;2022-10-16T16:46:51;1.63;;;0.30;;
12124;SDS011;6126;57.908;16.490;2022-10-16T16:49:17;1.25;;;0.47;;
12124;SDS011;6126;57.908;16.490;2022-10-16T16:51:43;1.65;;;0.50;;
12124;SDS011;6126;57.908;16.490;2022-10-16T16:54:09;1.27;;;0.50;;
12124;SDS011;6126;57.908;16.490;2022-10-16T16:56:37;0.30;;;0.30;;
12124;SDS011;6126;57.908;16.490;2022-10-16T16:59:04;6.68;;;0.90;;
12124;SDS011;6126;57.908;16.490;2022-10-16T17:01:30;2.53;;;0.60;;
12124;SDS011;6126;57.908;16.490;2022-10-16T17:03:57;1.75;;;0.75;;
12124;SDS011;6126;57.908;16.490;2022-10-16T17:06:25;2.00;;;0.68;;
12124;SDS011;6126;57.908;16.490;2022-10-16T17:08:54;4.68;;;0.50;;
12124;SDS011;6126;57.908;16.490;2022-10-16T17:11:21;3.63;;;0.60;;
12124;SDS011;6126;57.908;16.490;2022-10-16T17:13:50;1.77;;;0.73;;
12124;SDS011;6126;57.908;16.490;2022-10-16T17:16:20;1.17;;;0.57;;
12124;SDS011;6126;57.908;16.490;2022-10-16T17:18:49;2.38;;;1.00;;
12124;SDS011;6126;57.908;16.490;2022-10-16T17:21:16;2.20;;;0.80;;
12124;SDS011;6126;57.908;16.490;2022-10-16T17:23:42;2.60;;;0.60;;
12124;SDS011;6126;57.908;16.490;2022-10-16T17:26:09;2.95;;;0.98;;
12124;SDS011;6126;57.908;16.490;2022-10-16T17:28:39;2.30;;;0.70;;
12124;SDS011;6126;57.908;16.490;2022-10-16T17:33:34;1.50;;;0.50;;
12124;SDS011;6126;57.908;16.490;2022-10-16T17:36:00;1.27;;;0.60;;